Time;durP1;ratioP1;P1;durP2;ratioP2;P2;SDS_P1;SDS_P2;PMS_P1;PMS_P2;Temp;Humidity;BMP_temperature;BMP_pressure;BME280_temperature;BME280_humidity;BME280_pressure;Samples;Min_cycle;Max_cycle;Signal;HPM_P1;HPM_P2
2022/03/26 00:01:18;;;;;;;30.77;19.23;;;;;;;12.70;33.74;101752.75;4137701;28;20061;-70
2022/03/26 00:03:22;;;;;;;27.02;18.48;;;;;;;12.73;33.89;101758.03;4147165;28;20468;-70
2022/03/26 00:05:25;;;;;;;27.92;18.27;;;;;;;12.67;34.04;101755.28;4138914;28;20046;-70
2022/03/26 00:07:28;;;;;;;27.75;16.45;;;;;;;12.64;34.16;101757.81;4147260;28;20041;-70
2022/03/26 00:09:31;;;;;;;28.33;18.33;;;;;;;12.57;33.89;101751.53;4139362;28;20041;-70
2022/03/26 00:11:34;;;;;;;31.00;16.63;;;;;;;12.54;34.42;101757.56;4138627;28;20108;-70
2022/03/26 00:13:36;;;;;;;31.90;18.77;;;;;;;12.51;34.71;101756.59;4145529;28;20042;-70
2022/03/26 00:15:39;;;;;;;34.00;20.00;;;;;;;12.60;34.04;101767.28;4145825;28;20420;-70
2022/03/26 00:17:42;;;;;;;36.03;19.85;;;;;;;12.70;34.26;101768.38;4145179;28;20042;-70
2022/03/26 00:19:46;;;;;;;29.92;18.40;;;;;;;12.70;34.48;101765.78;4140353;28;20231;-70
2022/03/26 00:21:49;;;;;;;30.73;20.60;;;;;;;12.75;33.55;101772.91;4140973;28;20046;-70
2022/03/26 00:23:52;;;;;;;30.52;18.73;;;;;;;12.76;33.64;101773.75;4144672;28;20054;-70
2022/03/26 00:25:58;;;;;;;30.38;21.45;;;;;;;12.78;34.30;101779.94;4146381;28;20496;-70
2022/03/26 00:28:00;;;;;;;32.90;20.67;;;;;;;12.79;34.17;101784.31;4144746;28;20042;-70
2022/03/26 00:30:04;;;;;;;30.10;20.45;;;;;;;12.78;34.30;101787.75;4146390;28;20038;-70
2022/03/26 00:32:07;;;;;;;29.40;19.60;;;;;;;12.67;33.89;101781.34;4147007;28;20092;-70
2022/03/26 00:34:10;;;;;;;35.17;21.05;;;;;;;12.53;34.76;101775.78;4135292;28;20038;-70
2022/03/26 00:36:14;;;;;;;32.03;19.33;;;;;;;12.42;34.71;101777.19;4133856;28;20057;-70
2022/03/26 00:38:17;;;;;;;32.83;21.67;;;;;;;12.40;34.84;101779.78;4144645;28;20034;-70
2022/03/26 00:40:20;;;;;;;31.98;20.67;;;;;;;12.35;34.99;101777.03;4142663;28;20516;-70
2022/03/26 00:42:23;;;;;;;31.35;19.08;;;;;;;12.22;35.29;101781.03;4138329;28;20443;-70
2022/03/26 00:44:26;;;;;;;30.90;20.20;;;;;;;12.16;35.73;101769.50;4144833;28;20054;-69
2022/03/26 00:46:28;;;;;;;31.65;19.65;;;;;;;12.16;35.33;101786.06;4146866;28;20041;-70
2022/03/26 00:48:31;;;;;;;31.15;19.55;;;;;;;12.17;34.55;101772.16;4145981;28;20518;-70
2022/03/26 00:50:34;;;;;;;32.22;19.40;;;;;;;12.17;34.65;101773.91;4145226;28;20054;-70
2022/03/26 00:52:41;;;;;;;28.80;19.58;;;;;;;12.18;35.43;101779.16;4145560;28;20413;-69
2022/03/26 00:54:44;;;;;;;32.20;21.00;;;;;;;12.25;34.59;101785.44;4138185;28;20046;-70
2022/03/26 00:56:46;;;;;;;32.95;20.15;;;;;;;12.16;35.10;101775.63;4139463;28;20129;-70
2022/03/26 00:58:49;;;;;;;31.75;18.38;;;;;;;12.15;34.91;101783.38;4139468;28;20574;-70
2022/03/26 01:00:52;;;;;;;30.50;19.50;;;;;;;11.97;35.21;101774.22;4139752;28;20038;-70
2022/03/26 01:02:55;;;;;;;29.65;18.58;;;;;;;11.93;34.95;101779.22;4146699;28;20114;-70
2022/03/26 01:04:58;;;;;;;30.60;19.25;;;;;;;11.84;35.11;101772.94;4140305;28;20455;-69
2022/03/26 01:07:00;;;;;;;34.80;18.60;;;;;;;11.75;35.42;101772.63;4148095;28;20073;-70
2022/03/26 01:09:06;;;;;;;30.65;18.65;;;;;;;11.72;36.35;101779.47;4157459;28;20041;-69
2022/03/26 01:11:09;;;;;;;30.80;17.83;;;;;;;11.76;35.98;101769.19;4142490;28;20038;-69
2022/03/26 01:13:13;;;;;;;31.25;18.90;;;;;;;11.70;35.39;101775.09;4142113;28;20038;-70
2022/03/26 01:15:15;;;;;;;33.00;18.08;;;;;;;11.57;36.64;101772.09;4148686;28;20061;-69
2022/03/26 01:17:19;;;;;;;30.73;18.95;;;;;;;11.54;36.07;101770.25;4146206;28;20100;-69
2022/03/26 01:19:22;;;;;;;34.38;17.65;;;;;;;11.49;36.87;101772.72;4148151;28;20084;-69
2022/03/26 01:21:25;;;;;;;31.25;18.73;;;;;;;11.45;36.78;101772.59;4145723;28;20503;-70
2022/03/26 01:23:27;;;;;;;32.60;17.83;;;;;;;11.39;36.54;101765.44;4148070;28;20100;-69
2022/03/26 01:25:32;;;;;;;30.40;18.00;;;;;;;11.42;37.44;101769.84;4147320;28;20046;-69
2022/03/26 01:27:35;;;;;;;29.35;17.92;;;;;;;11.40;37.67;101767.19;4144323;28;20049;-69
2022/03/26 01:29:38;;;;;;;34.35;18.77;;;;;;;11.29;37.36;101766.88;4148534;28;20529;-70
2022/03/26 01:31:41;;;;;;;29.08;17.42;;;;;;;11.29;36.91;101761.66;4140304;28;20479;-69
2022/03/26 01:33:44;;;;;;;26.00;15.77;;;;;;;11.23;37.25;101769.28;4143070;28;20050;-69
2022/03/26 01:35:47;;;;;;;32.67;16.90;;;;;;;11.20;37.50;101763.06;4147257;28;20038;-69
2022/03/26 01:37:49;;;;;;;28.15;17.98;;;;;;;11.16;38.10;101769.91;4144601;28;20484;-69
2022/03/26 01:39:52;;;;;;;28.73;16.23;;;;;;;11.14;38.22;101769.88;4141562;28;20408;-69
2022/03/26 01:42:01;;;;;;;30.33;16.65;;;;;;;11.11;38.19;101764.56;4143366;28;20049;-70
2022/03/26 01:44:04;;;;;;;26.85;14.40;;;;;;;11.07;38.58;101759.19;4146665;28;20115;-69
2022/03/26 01:46:07;;;;;;;29.50;16.00;;;;;;;11.05;38.16;101766.94;4135382;28;20566;-70
2022/03/26 01:48:10;;;;;;;29.10;16.98;;;;;;;11.03;38.15;101750.41;4143119;28;20034;-70
2022/03/26 01:50:13;;;;;;;32.70;18.35;;;;;;;11.05;38.39;101755.66;4144599;28;20038;-69
2022/03/26 01:52:16;;;;;;;26.13;15.98;;;;;;;11.06;38.74;101760.91;4143068;28;20511;-70
2022/03/26 01:54:19;;;;;;;25.45;15.27;;;;;;;11.03;38.08;101758.19;4139831;28;20053;-70
2022/03/26 01:56:22;;;;;;;31.00;18.30;;;;;;;10.99;38.33;101756.31;4145840;28;20041;-70
2022/03/26 01:58:26;;;;;;;30.50;17.80;;;;;;;10.98;38.48;101763.25;4145748;28;20718;-69
2022/03/26 02:00:29;;;;;;;30.40;17.88;;;;;;;10.90;38.81;101758.63;4141207;28;20114;-70
2022/03/26 02:02:33;;;;;;;27.13;16.45;;;;;;;10.86;39.07;101756.75;4145781;28;20049;-70
2022/03/26 02:04:36;;;;;;;29.25;15.95;;;;;;;10.74;38.38;101760.69;4140890;28;20097;-70
2022/03/26 02:06:40;;;;;;;23.38;15.80;;;;;;;10.69;39.27;101759.66;4140865;28;20037;-70
2022/03/26 02:08:43;;;;;;;26.40;16.45;;;;;;;10.64;38.94;101766.41;4146437;28;20072;-70
2022/03/26 02:10:45;;;;;;;34.45;18.13;;;;;;;10.57;39.56;101757.53;4148909;28;20057;-70
2022/03/26 02:12:49;;;;;;;26.55;15.18;;;;;;;10.56;38.92;101766.16;4147395;28;20042;-70
2022/03/26 02:14:54;;;;;;;31.17;18.42;;;;;;;10.68;38.97;101767.41;4145432;28;20108;-70
2022/03/26 02:16:57;;;;;;;35.15;17.90;;;;;;;10.72;39.26;101774.47;4146837;28;20043;-70
2022/03/26 02:19:00;;;;;;;28.33;16.73;;;;;;;10.76;38.73;101774.66;4145585;28;20050;-70
2022/03/26 02:21:04;;;;;;;34.95;19.60;;;;;;;10.76;39.13;101771.16;4145550;28;20492;-70
2022/03/26 02:23:07;;;;;;;38.50;17.77;;;;;;;10.63;38.86;101772.44;4147342;28;20124;-69
2022/03/26 02:25:10;;;;;;;30.25;17.60;;;;;;;10.72;38.88;101777.97;4147997;28;20112;-70
2022/03/26 02:27:13;;;;;;;31.65;18.30;;;;;;;10.65;38.35;101766.47;4139672;28;20033;-70
2022/03/26 02:29:16;;;;;;;30.38;16.88;;;;;;;10.57;39.29;101767.94;4145018;28;20033;-69
2022/03/26 02:31:18;;;;;;;33.53;18.15;;;;;;;10.42;39.34;101768.25;4140297;28;20403;-70
2022/03/26 02:33:21;;;;;;;30.23;17.95;;;;;;;10.35;39.34;101766.25;4140597;28;20092;-70
2022/03/26 02:35:24;;;;;;;32.20;17.92;;;;;;;10.41;39.11;101766.50;4147574;28;20041;-70
2022/03/26 02:37:29;;;;;;;33.08;17.98;;;;;;;10.40;39.29;101769.03;4142126;28;20402;-70
2022/03/26 02:39:32;;;;;;;35.78;17.42;;;;;;;10.41;38.88;101763.91;4146397;28;20395;-70
2022/03/26 02:41:35;;;;;;;37.45;19.35;;;;;;;10.27;38.80;101768.53;4147744;28;20041;-70
2022/03/26 02:43:38;;;;;;;29.42;18.17;;;;;;;10.23;39.40;101768.38;4140671;28;20500;-69
2022/03/26 02:45:44;;;;;;;32.20;19.25;;;;;;;10.24;39.38;101772.75;4148244;28;20049;-70
2022/03/26 02:47:48;;;;;;;35.85;19.05;;;;;;;10.20;39.32;101765.69;4147091;28;20050;-70
2022/03/26 02:49:51;;;;;;;28.75;17.83;;;;;;;10.18;39.28;101764.72;4146613;28;20038;-70
2022/03/26 02:51:54;;;;;;;29.02;17.83;;;;;;;10.17;39.78;101762.97;4146234;28;20045;-70
2022/03/26 02:53:58;;;;;;;33.85;18.55;;;;;;;10.15;39.45;101762.91;4146041;28;20101;-70
2022/03/26 02:56:01;;;;;;;35.22;18.42;;;;;;;10.18;39.44;101760.44;4145186;28;20563;-70
2022/03/26 02:58:04;;;;;;;30.80;18.40;;;;;;;10.12;39.37;101758.47;4148164;28;20111;-70
2022/03/26 03:00:08;;;;;;;29.65;18.15;;;;;;;10.02;39.46;101753.78;4146127;28;20057;-70
2022/03/26 03:02:10;;;;;;;29.20;17.57;;;;;;;9.97;39.49;101757.91;4147180;28;20042;-71
2022/03/26 03:04:13;;;;;;;29.55;16.77;;;;;;;9.90;40.26;101755.91;4146654;28;20132;-70
2022/03/26 03:06:16;;;;;;;29.48;16.17;;;;;;;9.75;40.82;101757.09;4146770;28;20026;-70
2022/03/26 03:08:19;;;;;;;36.30;18.02;;;;;;;9.74;40.86;101757.94;4146524;28;20046;-70
2022/03/26 03:10:23;;;;;;;25.25;16.30;;;;;;;9.72;40.74;101750.91;4148111;28;20041;-70
2022/03/26 03:12:28;;;;;;;28.17;16.23;;;;;;;9.63;41.25;101748.81;4147836;28;20046;-70
2022/03/26 03:14:36;;;;;;;27.98;16.15;;;;;;;9.63;41.03;101746.22;4146728;28;20049;-70
2022/03/26 03:16:39;;;;;;;31.58;17.88;;;;;;;9.59;41.49;101745.25;4137559;28;20072;-70
2022/03/26 03:18:42;;;;;;;31.67;17.15;;;;;;;9.56;41.88;101745.13;4140262;28;20041;-70
2022/03/26 03:20:50;;;;;;;30.20;17.55;;;;;;;9.59;41.90;101746.94;4145377;28;20042;-69
2022/03/26 03:22:52;;;;;;;30.23;16.45;;;;;;;9.60;42.01;101747.00;4140395;28;20041;-70
2022/03/26 03:24:55;;;;;;;22.50;15.57;;;;;;;9.61;42.10;101751.38;4145106;28;20049;-70
2022/03/26 03:26:59;;;;;;;33.35;17.80;;;;;;;9.66;42.13;101746.34;4145608;28;20433;-70
2022/03/26 03:29:02;;;;;;;29.45;16.60;;;;;;;9.62;42.08;101752.25;4146503;28;20258;-69
2022/03/26 03:31:05;;;;;;;28.38;16.85;;;;;;;9.63;42.04;101751.41;4146308;28;21241;-69
2022/03/26 03:33:08;;;;;;;31.90;17.17;;;;;;;9.59;42.17;101752.13;4147286;28;20522;-69
2022/03/26 03:35:11;;;;;;;29.85;17.00;;;;;;;9.53;42.68;101746.69;4147679;28;20503;-69
2022/03/26 03:37:13;;;;;;;30.17;17.85;;;;;;;9.55;42.44;101753.72;4139656;28;20047;-69
2022/03/26 03:39:16;;;;;;;33.53;18.27;;;;;;;9.56;42.12;101758.09;4139928;28;20047;-69
2022/03/26 03:41:19;;;;;;;31.90;17.20;;;;;;;9.56;42.02;101744.22;4145235;28;20042;-70
2022/03/26 03:43:24;;;;;;;28.20;17.48;;;;;;;9.53;42.50;101750.16;4146463;28;20041;-70
2022/03/26 03:45:26;;;;;;;26.98;16.55;;;;;;;9.54;42.68;101751.06;4145147;28;20038;-70
2022/03/26 03:47:29;;;;;;;25.05;16.42;;;;;;;9.55;42.22;101745.03;4147609;28;20073;-70
2022/03/26 03:49:32;;;;;;;28.80;17.55;;;;;;;9.58;42.43;101747.78;4145041;28;20042;-70
2022/03/26 03:51:35;;;;;;;35.75;19.77;;;;;;;9.56;42.15;101750.31;4139912;28;20041;-70
2022/03/26 03:53:37;;;;;;;30.45;19.85;;;;;;;9.58;41.85;101747.78;4138750;28;20049;-70
2022/03/26 03:55:40;;;;;;;36.42;18.88;;;;;;;9.51;41.29;101757.03;4137125;28;20049;-69
2022/03/26 03:57:44;;;;;;;33.88;19.67;;;;;;;9.54;41.59;101756.28;4146048;28;20042;-70
2022/03/26 03:59:49;;;;;;;30.00;18.95;;;;;;;9.49;41.49;101753.50;4144241;28;20124;-69
2022/03/26 04:01:51;;;;;;;31.42;18.60;;;;;;;9.54;41.75;101751.06;4139856;28;20050;-70
2022/03/26 04:03:54;;;;;;;34.30;21.02;;;;;;;9.58;41.40;101760.75;4141390;28;20073;-71
2022/03/26 04:05:58;;;;;;;31.85;19.02;;;;;;;9.63;41.40;101756.63;4144020;28;20042;-70
2022/03/26 04:08:01;;;;;;;35.95;19.60;;;;;;;9.55;41.29;101748.53;4147430;28;20455;-70
2022/03/26 04:10:04;;;;;;;31.50;20.90;;;;;;;9.63;40.91;101750.56;4144320;28;20096;-71
2022/03/26 04:12:08;;;;;;;33.85;19.90;;;;;;;9.60;41.13;101752.19;4147073;28;20038;-70
2022/03/26 04:14:12;;;;;;;32.65;19.08;;;;;;;9.50;41.41;101754.38;4143148;28;20049;-71
2022/03/26 04:16:16;;;;;;;36.58;20.38;;;;;;;9.48;41.55;101756.91;4143617;28;20042;-70
2022/03/26 04:18:18;;;;;;;34.92;20.17;;;;;;;9.48;41.38;101766.41;4145485;28;20046;-70
2022/03/26 04:20:21;;;;;;;41.92;22.17;;;;;;;9.44;41.59;101766.25;4143161;28;20527;-70
2022/03/26 04:22:24;;;;;;;36.47;20.45;;;;;;;9.49;41.65;101773.34;4139364;28;20046;-69
2022/03/26 04:24:26;;;;;;;37.63;20.88;;;;;;;9.52;41.70;101778.66;4145970;28;20088;-70
2022/03/26 04:26:29;;;;;;;36.35;21.85;;;;;;;9.54;41.67;101774.44;4146037;28;20108;-69
2022/03/26 04:28:32;;;;;;;34.72;19.52;;;;;;;9.35;41.89;101773.69;4146266;28;20034;-68
2022/03/26 04:30:35;;;;;;;40.92;19.90;;;;;;;9.23;41.98;101775.81;4144063;28;20526;-69
2022/03/26 04:32:39;;;;;;;34.65;20.20;;;;;;;9.24;42.18;101777.56;4145904;28;20061;-69
2022/03/26 04:34:41;;;;;;;33.90;19.17;;;;;;;9.20;42.14;101773.06;4138314;28;20100;-69
2022/03/26 04:36:44;;;;;;;32.90;20.05;;;;;;;9.21;42.16;101775.75;4145991;28;20292;-69
2022/03/26 04:38:47;;;;;;;37.35;19.95;;;;;;;9.14;42.54;101775.41;4145867;28;20038;-69
2022/03/26 04:40:50;;;;;;;35.20;20.10;;;;;;;9.19;42.02;101773.91;4145801;28;20046;-70
2022/03/26 04:42:53;;;;;;;39.38;20.17;;;;;;;9.26;42.25;101770.75;4142151;28;20499;-69
2022/03/26 04:44:55;;;;;;;33.08;20.30;;;;;;;9.31;42.14;101773.50;4146608;28;20523;-69
2022/03/26 04:46:58;;;;;;;30.10;20.13;;;;;;;9.24;42.34;101780.16;4148535;28;20108;-69
2022/03/26 04:49:02;;;;;;;33.55;20.58;;;;;;;9.29;41.87;101781.25;4143348;28;20299;-70
2022/03/26 04:51:05;;;;;;;36.17;20.05;;;;;;;9.22;42.21;101785.28;4148490;28;20450;-70
2022/03/26 04:53:09;;;;;;;37.10;19.65;;;;;;;9.04;42.65;101777.63;4146731;28;20080;-69
2022/03/26 04:55:12;;;;;;;40.83;20.25;;;;;;;9.04;42.78;101776.75;4140916;28;20467;-69
2022/03/26 04:57:17;;;;;;;38.65;20.40;;;;;;;9.09;42.62;101778.69;4150075;28;20522;-70
2022/03/26 04:59:19;;;;;;;33.75;20.50;;;;;;;9.11;42.66;101786.53;4145661;28;20483;-69
2022/03/26 05:01:22;;;;;;;36.40;19.50;;;;;;;9.00;43.02;101780.91;4148990;28;20042;-70
2022/03/26 05:03:25;;;;;;;34.13;21.50;;;;;;;9.01;42.73;101785.28;4140726;28;20117;-70
2022/03/26 05:05:29;;;;;;;39.20;22.08;;;;;;;8.95;42.78;101786.72;4146269;28;20125;-69
2022/03/26 05:07:47;;;;;;;39.03;22.38;;;;;;;8.94;43.10;101790.16;4149335;28;20041;-70
2022/03/26 05:09:50;;;;;;;35.08;19.48;;;;;;;8.93;42.87;101796.16;4147038;28;20042;-70
2022/03/26 05:11:53;;;;;;;32.28;20.90;;;;;;;8.99;43.10;101799.00;4147235;28;20054;-70
2022/03/26 05:13:55;;;;;;;31.15;19.13;;;;;;;8.88;43.25;101798.56;4146667;28;20049;-70
2022/03/26 05:15:58;;;;;;;30.65;19.00;;;;;;;8.84;43.53;101799.25;4143383;28;20050;-71
2022/03/26 05:18:03;;;;;;;31.27;20.15;;;;;;;8.73;43.09;101802.28;4143856;28;20582;-71
2022/03/26 05:20:08;;;;;;;35.75;19.85;;;;;;;8.75;43.45;101799.75;4141181;28;20042;-70
2022/03/26 05:22:13;;;;;;;33.95;19.75;;;;;;;8.70;44.07;101804.72;4138732;28;20050;-70
2022/03/26 05:24:15;;;;;;;32.03;19.42;;;;;;;8.57;43.82;101810.16;4148240;28;20046;-70
2022/03/26 05:26:22;;;;;;;36.03;20.75;;;;;;;8.53;43.98;101803.09;4145676;28;20086;-69
2022/03/26 05:28:25;;;;;;;42.70;21.05;;;;;;;8.57;44.13;101802.41;4147363;28;20100;-71
2022/03/26 05:30:28;;;;;;;34.78;19.17;;;;;;;8.54;44.74;101803.16;4148388;28;20053;-70
2022/03/26 05:32:31;;;;;;;35.05;19.00;;;;;;;8.50;44.44;101808.16;4146226;28;20447;-70
2022/03/26 05:34:34;;;;;;;37.85;20.55;;;;;;;8.50;44.58;101810.75;4147449;28;20100;-70
2022/03/26 05:36:36;;;;;;;33.05;20.30;;;;;;;8.45;44.61;101802.75;4143241;28;20030;-71
2022/03/26 05:38:40;;;;;;;34.00;20.27;;;;;;;8.50;44.75;101805.56;4146153;28;20049;-70
2022/03/26 05:40:43;;;;;;;35.50;19.38;;;;;;;8.53;44.51;101813.47;4146921;28;20046;-70
2022/03/26 05:42:47;;;;;;;30.85;19.08;;;;;;;8.55;44.50;101814.41;4149027;28;20054;-70
2022/03/26 05:44:50;;;;;;;38.20;19.58;;;;;;;8.48;44.53;101826.19;4141927;28;20050;-71
2022/03/26 05:46:52;;;;;;;33.60;18.95;;;;;;;8.59;44.59;101824.09;4147212;28;20089;-70
2022/03/26 05:48:55;;;;;;;39.20;19.58;;;;;;;8.45;44.89;101823.47;4142740;28;20047;-69
2022/03/26 05:50:58;;;;;;;36.75;22.02;;;;;;;8.47;44.97;101824.44;4144206;28;20530;-70
2022/03/26 05:53:01;;;;;;;32.67;20.23;;;;;;;8.34;44.98;101829.88;4146531;28;20041;-70
2022/03/26 05:55:07;;;;;;;31.05;19.85;;;;;;;8.31;44.94;101828.00;4143606;28;20053;-70
2022/03/26 05:57:09;;;;;;;37.28;20.05;;;;;;;8.32;45.66;101832.38;4140229;28;20100;-70
2022/03/26 05:59:13;;;;;;;37.35;20.60;;;;;;;8.30;45.80;101836.59;4147734;28;20038;-70
2022/03/26 06:01:15;;;;;;;36.90;20.63;;;;;;;8.36;45.60;101834.28;4145167;28;20085;-70
2022/03/26 06:03:19;;;;;;;40.47;20.80;;;;;;;8.44;45.06;101841.50;4142938;28;20088;-70
2022/03/26 06:05:22;;;;;;;37.88;20.70;;;;;;;8.43;45.08;101850.13;4132394;28;20049;-69
2022/03/26 06:07:24;;;;;;;30.95;18.48;;;;;;;8.44;44.80;101850.22;4147918;28;20507;-70
2022/03/26 06:09:27;;;;;;;29.95;17.15;;;;;;;8.37;45.45;101846.44;4142155;28;20410;-70
2022/03/26 06:11:31;;;;;;;35.42;20.50;;;;;;;8.51;45.32;101844.50;4146729;28;20088;-70
2022/03/26 06:13:34;;;;;;;35.38;19.40;;;;;;;8.58;45.27;101850.84;4146932;28;20491;-71
2022/03/26 06:15:37;;;;;;;43.40;21.23;;;;;;;8.65;45.01;101852.00;4146547;28;20049;-70
2022/03/26 06:17:46;;;;;;;36.65;22.30;;;;;;;8.67;44.61;101851.25;4135437;28;20053;-70
2022/03/26 06:19:49;;;;;;;31.67;19.38;;;;;;;8.65;45.05;101855.47;4139636;28;20046;-70
2022/03/26 06:21:52;;;;;;;33.45;18.20;;;;;;;8.70;44.93;101856.59;4148694;28;20104;-69
2022/03/26 06:23:55;;;;;;;45.22;19.42;;;;;;;8.86;44.41;101857.25;4142692;28;20052;-69
2022/03/26 06:25:58;;;;;;;33.72;20.60;;;;;;;8.84;44.22;101859.75;4139978;28;20042;-69
2022/03/26 06:28:03;;;;;;;34.92;19.25;;;;;;;8.82;44.65;101855.31;4147696;28;20586;-69
2022/03/26 06:30:07;;;;;;;30.55;17.42;;;;;;;8.86;45.17;101865.94;4146446;28;20038;-70
2022/03/26 06:32:10;;;;;;;34.55;20.88;;;;;;;8.96;44.75;101856.81;4139694;28;21275;-70
2022/03/26 06:34:13;;;;;;;37.85;21.20;;;;;;;9.02;44.50;101864.88;4143002;28;20050;-69
2022/03/26 06:36:15;;;;;;;34.25;20.38;;;;;;;9.00;44.85;101855.25;4139425;28;20030;-70
2022/03/26 06:38:18;;;;;;;31.75;18.42;;;;;;;9.07;44.58;101858.16;4148503;28;20554;-70
2022/03/26 06:40:21;;;;;;;36.08;20.55;;;;;;;9.08;44.37;101859.97;4146368;28;20097;-70
2022/03/26 06:42:24;;;;;;;36.58;19.30;;;;;;;9.15;44.54;101866.28;4148185;28;20447;-69
2022/03/26 06:44:28;;;;;;;35.55;19.35;;;;;;;9.21;44.29;101860.47;4145157;28;20038;-69
2022/03/26 06:46:31;;;;;;;36.65;19.88;;;;;;;9.23;44.36;101864.91;4147120;28;20042;-70
2022/03/26 06:48:34;;;;;;;33.45;20.52;;;;;;;9.24;44.18;101860.59;4147045;28;20417;-70
2022/03/26 06:50:37;;;;;;;29.77;18.17;;;;;;;9.25;44.40;101864.97;4140900;28;20034;-70
2022/03/26 06:52:39;;;;;;;28.42;18.58;;;;;;;9.24;44.73;101866.69;4139479;28;20195;-70
2022/03/26 06:54:42;;;;;;;33.90;20.08;;;;;;;9.47;43.56;101869.34;4146063;28;20042;-70
2022/03/26 06:56:45;;;;;;;38.78;21.98;;;;;;;9.55;43.54;101867.06;4141726;28;20047;-70
2022/03/26 06:58:53;;;;;;;34.25;20.55;;;;;;;9.50;43.42;101872.06;4139595;28;20092;-70
2022/03/26 07:00:58;;;;;;;38.15;21.83;;;;;;;9.54;43.26;101875.69;4146994;28;20500;-69
2022/03/26 07:03:01;;;;;;;35.95;21.55;;;;;;;9.56;43.23;101879.22;4144501;28;20046;-70
2022/03/26 07:05:05;;;;;;;31.75;19.55;;;;;;;9.65;43.25;101874.44;4146296;28;20459;-70
2022/03/26 07:07:08;;;;;;;32.30;20.48;;;;;;;9.61;43.17;101877.72;4140882;28;20050;-70
2022/03/26 07:09:10;;;;;;;36.25;22.25;;;;;;;9.65;43.34;101882.22;4145515;28;20042;-70
2022/03/26 07:11:13;;;;;;;36.58;21.42;;;;;;;9.67;43.14;101882.28;4146754;28;20084;-70
2022/03/26 07:13:16;;;;;;;31.50;17.92;;;;;;;9.65;43.33;101881.31;4147760;28;20093;-70
2022/03/26 07:15:19;;;;;;;34.72;20.40;;;;;;;9.74;42.99;101882.56;4147739;28;20088;-70
2022/03/26 07:17:23;;;;;;;34.42;19.65;;;;;;;9.79;43.24;101881.03;4145241;28;20408;-69
2022/03/26 07:19:25;;;;;;;40.85;21.58;;;;;;;9.96;42.69;101883.44;4140397;28;20049;-70
2022/03/26 07:21:28;;;;;;;34.67;19.67;;;;;;;9.95;42.83;101884.25;4137019;28;20042;-71
2022/03/26 07:23:31;;;;;;;36.88;21.10;;;;;;;10.01;42.28;101881.91;4146917;28;20045;-70
2022/03/26 07:25:34;;;;;;;33.17;20.70;;;;;;;9.91;43.19;101887.56;4145052;28;20054;-70
2022/03/26 07:27:38;;;;;;;39.83;22.05;;;;;;;10.15;42.36;101882.44;4141059;28;20084;-69
2022/03/26 07:29:40;;;;;;;35.70;21.58;;;;;;;10.06;42.89;101888.19;4142138;28;20096;-69
2022/03/26 07:31:43;;;;;;;45.25;21.58;;;;;;;10.10;42.82;101890.06;4144805;28;20049;-69
2022/03/26 07:33:47;;;;;;;40.28;20.77;;;;;;;10.20;42.57;101893.03;4147452;28;20081;-69
2022/03/26 07:35:50;;;;;;;30.65;18.02;;;;;;;10.10;42.85;101889.16;4146259;28;20077;-69
2022/03/26 07:37:52;;;;;;;38.72;21.90;;;;;;;10.25;42.54;101889.78;4147506;28;20076;-68
2022/03/26 07:39:55;;;;;;;32.78;17.98;;;;;;;10.30;42.65;101889.94;4141191;28;20096;-69
2022/03/26 07:41:58;;;;;;;36.55;23.33;;;;;;;10.56;42.22;101892.69;4150698;28;20065;-70
2022/03/26 07:44:01;;;;;;;39.10;21.73;;;;;;;10.54;41.75;101887.44;4149528;28;20463;-68
2022/03/26 07:46:04;;;;;;;33.30;20.08;;;;;;;10.55;42.22;101896.13;4148055;28;20095;-68
2022/03/26 07:48:07;;;;;;;37.28;22.35;;;;;;;10.65;42.02;101899.09;4142344;28;20045;-68
2022/03/26 07:50:11;;;;;;;38.65;22.77;;;;;;;10.80;41.57;101890.97;4143366;28;20080;-68
2022/03/26 07:52:14;;;;;;;43.28;22.65;;;;;;;10.99;41.74;101897.75;4145783;28;20295;-68
2022/03/26 07:54:17;;;;;;;38.45;22.25;;;;;;;10.99;41.90;101895.16;4148717;28;20042;-68
2022/03/26 07:56:21;;;;;;;40.70;22.25;;;;;;;10.87;41.86;101904.22;4146733;28;20448;-68
2022/03/26 07:58:24;;;;;;;38.03;22.67;;;;;;;10.91;41.96;101898.31;4146105;28;20092;-69
2022/03/26 08:00:27;;;;;;;34.83;21.83;;;;;;;10.92;41.86;101895.75;4147369;28;20046;-68
2022/03/26 08:02:30;;;;;;;37.83;22.40;;;;;;;10.90;41.87;101897.41;4162973;28;20459;-68
2022/03/26 08:04:35;;;;;;;41.50;22.50;;;;;;;10.91;42.62;101906.97;4153138;28;20453;-69
2022/03/26 08:06:39;;;;;;;38.05;21.85;;;;;;;10.91;42.53;101899.19;4147426;28;20396;-68
2022/03/26 08:08:42;;;;;;;32.75;19.52;;;;;;;10.73;42.75;101896.81;4147477;28;20049;-68
2022/03/26 08:10:44;;;;;;;31.25;19.15;;;;;;;10.63;43.17;101902.47;4148837;28;20459;-68
2022/03/26 08:12:47;;;;;;;27.25;15.57;;;;;;;10.86;48.94;101902.44;4142667;28;20100;-70
2022/03/26 08:14:50;;;;;;;34.35;19.05;;;;;;;11.35;48.20;101904.19;4139517;28;20046;-63
2022/03/26 08:16:53;;;;;;;36.15;21.02;;;;;;;11.57;42.79;101905.78;4139138;28;20138;-67
2022/03/26 08:18:56;;;;;;;38.70;22.33;;;;;;;11.74;41.48;101913.25;4140196;28;20132;-68
2022/03/26 08:20:59;;;;;;;43.58;21.95;;;;;;;11.77;41.12;101906.44;4133612;28;20090;-71
2022/03/26 08:23:03;;;;;;;38.55;22.73;;;;;;;11.69;41.98;101905.31;4134151;28;20046;-73
2022/03/26 08:25:09;;;;;;;36.30;20.50;;;;;;;11.62;41.75;101909.44;4147945;28;20045;-69
2022/03/26 08:27:12;;;;;;;36.03;22.80;;;;;;;11.68;42.24;101911.34;4150294;28;20128;-69
2022/03/26 08:29:15;;;;;;;38.40;22.45;;;;;;;11.83;41.25;101911.84;4147835;28;20054;-69
2022/03/26 08:31:46;;;;;;;39.80;21.90;;;;;;;11.84;41.47;101913.63;4146666;28;20104;-68
2022/03/26 08:33:49;;;;;;;42.05;20.63;;;;;;;11.88;41.34;101915.50;4135157;28;20054;-68
2022/03/26 08:35:52;;;;;;;35.95;22.20;;;;;;;11.83;41.48;101914.47;4136987;28;20065;-67
2022/03/26 08:37:55;;;;;;;36.55;21.55;;;;;;;11.98;41.24;101921.91;4138410;28;20507;-66
2022/03/26 08:39:59;;;;;;;36.25;22.40;;;;;;;12.03;41.42;101919.44;4135819;28;20042;-68
2022/03/26 08:42:03;;;;;;;31.00;20.13;;;;;;;12.07;41.09;101925.66;4144986;28;20045;-68
2022/03/26 08:44:06;;;;;;;42.20;24.20;;;;;;;12.08;41.76;101922.22;4138307;28;20121;-67
2022/03/26 08:46:09;;;;;;;37.55;22.48;;;;;;;12.23;40.90;101920.94;4141200;28;20093;-68
2022/03/26 08:48:12;;;;;;;40.25;23.00;;;;;;;12.23;41.03;101907.91;4147956;28;20077;-68
2022/03/26 08:50:15;;;;;;;44.38;23.27;;;;;;;12.33;40.56;101923.88;4136999;28;20046;-69
2022/03/26 08:52:21;;;;;;;36.45;22.77;;;;;;;12.48;40.66;101924.31;4140140;28;20530;-66
2022/03/26 08:54:24;;;;;;;44.08;23.38;;;;;;;12.49;40.92;101915.66;4143600;28;20042;-68
2022/03/26 08:56:28;;;;;;;35.13;24.50;;;;;;;12.52;40.48;101920.97;4147000;28;20073;-61
2022/03/26 08:58:31;;;;;;;35.88;22.42;;;;;;;12.56;40.28;101917.59;4144746;28;20055;-67
2022/03/26 09:00:35;;;;;;;41.70;22.48;;;;;;;12.51;40.33;101916.59;4136352;28;20050;-67
2022/03/26 09:02:39;;;;;;;34.97;22.55;;;;;;;12.69;40.43;101920.59;4142942;28;20064;-68
2022/03/26 09:04:42;;;;;;;35.90;24.38;;;;;;;12.78;40.44;101914.75;4143462;28;20049;-65
2022/03/26 09:06:45;;;;;;;40.38;24.65;;;;;;;12.76;40.66;101919.91;4148056;28;20124;-69
2022/03/26 09:08:47;;;;;;;43.85;26.55;;;;;;;12.95;39.67;101917.81;4139562;28;20050;-68
2022/03/26 09:10:50;;;;;;;35.47;21.67;;;;;;;12.86;40.32;101919.31;4142253;28;20112;-65
2022/03/26 09:12:55;;;;;;;39.53;25.40;;;;;;;13.12;39.81;101919.16;4140488;28;20054;-66
2022/03/26 09:14:57;;;;;;;38.90;23.80;;;;;;;13.21;39.38;101914.19;4135870;28;20113;-65
2022/03/26 09:17:00;;;;;;;37.40;21.50;;;;;;;13.29;38.30;101914.41;4141401;28;20444;-67
2022/03/26 09:19:03;;;;;;;33.78;21.90;;;;;;;13.50;37.83;101911.50;4139999;28;20054;-65
2022/03/26 09:21:07;;;;;;;38.95;22.45;;;;;;;13.58;37.73;101915.19;4143793;28;20412;-64
2022/03/26 09:23:10;;;;;;;35.40;23.53;;;;;;;13.50;38.50;101914.09;4139849;28;20516;-68